sensor_id;sensor_type;location;lat;lon;timestamp;temperature;humidity
6662;DHT22;3367;48.714;8.994;2023-02-11T00:02:18;-3.90;1.00
6662;DHT22;3367;48.714;8.994;2023-02-11T00:04:45;-4.00;99.90
6662;DHT22;3367;48.714;8.994;2023-02-11T00:07:11;-4.00;99.90
6662;DHT22;3367;48.714;8.994;2023-02-11T00:09:40;-4.00;99.90
6662;DHT22;3367;48.714;8.994;2023-02-11T00:12:06;-4.00;1.00
6662;DHT22;3367;48.714;8.994;2023-02-11T00:14:33;-4.00;1.00
6662;DHT22;3367;48.714;8.994;2023-02-11T00:17:00;-3.90;1.00
6662;DHT22;3367;48.714;8.994;2023-02-11T00:19:27;-3.90;1.00
6662;DHT22;3367;48.714;8.994;2023-02-11T00:21:54;-4.00;1.00
6662;DHT22;3367;48.714;8.994;2023-02-11T00:24:20;-3.90;1.00
6662;DHT22;3367;48.714;8.994;2023-02-11T00:26:49;-4.00;1.00
6662;DHT22;3367;48.714;8.994;2023-02-11T00:29:15;-4.00;1.00
6662;DHT22;3367;48.714;8.994;2023-02-11T00:31:42;-4.00;1.00
6662;DHT22;3367;48.714;8.994;2023-02-11T00:34:09;-4.00;1.00
6662;DHT22;3367;48.714;8.994;2023-02-11T00:36:36;-3.90;1.00
6662;DHT22;3367;48.714;8.994;2023-02-11T00:39:03;-3.90;1.00
6662;DHT22;3367;48.714;8.994;2023-02-11T00:41:30;-3.90;1.00
6662;DHT22;3367;48.714;8.994;2023-02-11T00:43:58;-3.90;1.00
6662;DHT22;3367;48.714;8.994;2023-02-11T00:46:25;-3.90;1.00
6662;DHT22;3367;48.714;8.994;2023-02-11T00:48:52;-4.00;1.00
6662;DHT22;3367;48.714;8.994;2023-02-11T00:51:22;-4.00;1.00
6662;DHT22;3367;48.714;8.994;2023-02-11T00:53:49;-4.00;1.00
6662;DHT22;3367;48.714;8.994;2023-02-11T00:56:15;-4.10;1.00
6662;DHT22;3367;48.714;8.994;2023-02-11T01:01:15;-4.10;1.00
6662;DHT22;3367;48.714;8.994;2023-02-11T01:03:41;-4.10;1.00
6662;DHT22;3367;48.714;8.994;2023-02-11T01:06:08;-4.10;1.00
6662;DHT22;3367;48.714;8.994;2023-02-11T01:08:35;-4.10;1.00
6662;DHT22;3367;48.714;8.994;2023-02-11T01:11:04;-4.20;1.00
6662;DHT22;3367;48.714;8.994;2023-02-11T01:13:33;-4.20;1.00
6662;DHT22;3367;48.714;8.994;2023-02-11T01:16:02;-4.20;1.00
6662;DHT22;3367;48.714;8.994;2023-02-11T01:18:30;-4.30;1.00
6662;DHT22;3367;48.714;8.994;2023-02-11T01:20:57;-4.30;1.00
6662;DHT22;3367;48.714;8.994;2023-02-11T01:23:24;-4.30;1.00
6662;DHT22;3367;48.714;8.994;2023-02-11T01:25:51;-4.30;1.00
6662;DHT22;3367;48.714;8.994;2023-02-11T01:28:21;-4.40;1.00
6662;DHT22;3367;48.714;8.994;2023-02-11T01:30:49;-4.40;1.00
6662;DHT22;3367;48.714;8.994;2023-02-11T01:33:16;-4.40;1.00
6662;DHT22;3367;48.714;8.994;2023-02-11T01:35:44;-4.40;1.00
6662;DHT22;3367;48.714;8.994;2023-02-11T01:38:14;-4.50;1.00
6662;DHT22;3367;48.714;8.994;2023-02-11T01:40:46;-4.40;1.00
6662;DHT22;3367;48.714;8.994;2023-02-11T01:43:12;-4.50;1.00
6662;DHT22;3367;48.714;8.994;2023-02-11T01:45:59;-4.40;1.00
6662;DHT22;3367;48.714;8.994;2023-02-11T01:48:29;-4.50;1.00
6662;DHT22;3367;48.714;8.994;2023-02-11T01:51:03;-4.40;1.00
6662;DHT22;3367;48.714;8.994;2023-02-11T01:53:33;-4.40;1.00
6662;DHT22;3367;48.714;8.994;2023-02-11T01:56:19;-4.40;1.00
6662;DHT22;3367;48.714;8.994;2023-02-11T01:59:08;-4.40;1.00
6662;DHT22;3367;48.714;8.994;2023-02-11T02:01:38;-4.40;1.00
6662;DHT22;3367;48.714;8.994;2023-02-11T02:04:07;-4.40;1.00
6662;DHT22;3367;48.714;8.994;2023-02-11T02:06:42;-4.40;1.00
6662;DHT22;3367;48.714;8.994;2023-02-11T02:09:12;-4.40;1.00
6662;DHT22;3367;48.714;8.994;2023-02-11T02:11:41;-4.30;1.00
6662;DHT22;3367;48.714;8.994;2023-02-11T02:14:07;-4.30;1.00
6662;DHT22;3367;48.714;8.994;2023-02-11T02:16:35;-4.30;1.00
6662;DHT22;3367;48.714;8.994;2023-02-11T02:19:27;-4.30;63.10
6662;DHT22;3367;48.714;8.994;2023-02-11T02:24:58;-4.30;1.00
6662;DHT22;3367;48.714;8.994;2023-02-11T02:27:36;-4.30;99.90
6662;DHT22;3367;48.714;8.994;2023-02-11T02:30:28;-4.20;99.90
6662;DHT22;3367;48.714;8.994;2023-02-11T02:35:55;-4.20;1.00
6662;DHT22;3367;48.714;8.994;2023-02-11T02:38:29;-4.20;3.80
6662;DHT22;3367;48.714;8.994;2023-02-11T02:41:00;-4.20;79.70
6662;DHT22;3367;48.714;8.994;2023-02-11T02:43:29;-4.20;1.00
6662;DHT22;3367;48.714;8.994;2023-02-11T02:46:09;-4.20;1.00
6662;DHT22;3367;48.714;8.994;2023-02-11T02:48:37;-4.20;1.00
6662;DHT22;3367;48.714;8.994;2023-02-11T02:51:14;-4.20;1.00
6662;DHT22;3367;48.714;8.994;2023-02-11T02:53:54;-4.20;1.00
6662;DHT22;3367;48.714;8.994;2023-02-11T02:56:28;-4.20;1.00
6662;DHT22;3367;48.714;8.994;2023-02-11T02:59:12;-4.20;1.00
6662;DHT22;3367;48.714;8.994;2023-02-11T03:01:49;-4.20;1.00
6662;DHT22;3367;48.714;8.994;2023-02-11T03:04:24;-4.20;1.00
6662;DHT22;3367;48.714;8.994;2023-02-11T03:06:58;-4.20;1.00
6662;DHT22;3367;48.714;8.994;2023-02-11T03:09:30;-4.20;1.00
6662;DHT22;3367;48.714;8.994;2023-02-11T03:11:59;-4.20;1.00
6662;DHT22;3367;48.714;8.994;2023-02-11T03:14:28;-4.20;1.00
6662;DHT22;3367;48.714;8.994;2023-02-11T03:16:57;-4.20;1.00
6662;DHT22;3367;48.714;8.994;2023-02-11T03:19:28;-4.10;47.50
6662;DHT22;3367;48.714;8.994;2023-02-11T03:21:56;-4.10;1.00
6662;DHT22;3367;48.714;8.994;2023-02-11T03:24:27;-4.10;1.00
6662;DHT22;3367;48.714;8.994;2023-02-11T03:26:57;-4.10;1.00
6662;DHT22;3367;48.714;8.994;2023-02-11T03:29:30;-4.10;1.00
6662;DHT22;3367;48.714;8.994;2023-02-11T03:32:02;-4.10;1.00
6662;DHT22;3367;48.714;8.994;2023-02-11T03:34:35;-4.10;1.00
6662;DHT22;3367;48.714;8.994;2023-02-11T03:37:08;-4.10;1.00
6662;DHT22;3367;48.714;8.994;2023-02-11T03:39:38;-4.10;1.00
6662;DHT22;3367;48.714;8.994;2023-02-11T03:42:07;-4.10;1.00
6662;DHT22;3367;48.714;8.994;2023-02-11T03:44:39;-4.00;1.00
6662;DHT22;3367;48.714;8.994;2023-02-11T03:47:10;-4.10;1.00
6662;DHT22;3367;48.714;8.994;2023-02-11T03:49:42;-4.10;1.00
6662;DHT22;3367;48.714;8.994;2023-02-11T03:52:11;-4.10;1.00
6662;DHT22;3367;48.714;8.994;2023-02-11T03:54:40;-4.00;1.00
6662;DHT22;3367;48.714;8.994;2023-02-11T03:57:09;-4.00;1.00
6662;DHT22;3367;48.714;8.994;2023-02-11T03:59:49;-4.00;1.00
6662;DHT22;3367;48.714;8.994;2023-02-11T04:02:17;-4.00;1.00
6662;DHT22;3367;48.714;8.994;2023-02-11T04:04:45;-4.00;1.00
6662;DHT22;3367;48.714;8.994;2023-02-11T04:07:12;-4.00;1.00
6662;DHT22;3367;48.714;8.994;2023-02-11T04:09:39;-3.90;1.00
6662;DHT22;3367;48.714;8.994;2023-02-11T04:12:06;-3.90;1.00
6662;DHT22;3367;48.714;8.994;2023-02-11T04:14:33;-3.80;1.00
6662;DHT22;3367;48.714;8.994;2023-02-11T04:17:00;-3.80;1.00
6662;DHT22;3367;48.714;8.994;2023-02-11T04:19:26;-3.70;1.00
6662;DHT22;3367;48.714;8.994;2023-02-11T04:21:55;-3.60;40.00
6662;DHT22;3367;48.714;8.994;2023-02-11T04:24:21;-3.50;29.90
6662;DHT22;3367;48.714;8.994;2023-02-11T04:26:48;-3.30;31.60
6662;DHT22;3367;48.714;8.994;2023-02-11T04:29:15;-3.20;1.00
6662;DHT22;3367;48.714;8.994;2023-02-11T04:31:41;-3.20;1.00
6662;DHT22;3367;48.714;8.994;2023-02-11T04:34:08;-3.10;1.00
6662;DHT22;3367;48.714;8.994;2023-02-11T04:36:35;-3.00;1.00
6662;DHT22;3367;48.714;8.994;2023-02-11T04:39:03;-2.90;1.00
6662;DHT22;3367;48.714;8.994;2023-02-11T04:41:30;-2.80;1.00
6662;DHT22;3367;48.714;8.994;2023-02-11T04:43:56;-2.80;1.00
6662;DHT22;3367;48.714;8.994;2023-02-11T04:46:23;-2.70;99.90
6662;DHT22;3367;48.714;8.994;2023-02-11T04:48:50;-2.60;99.90
6662;DHT22;3367;48.714;8.994;2023-02-11T04:51:17;-2.60;1.00
6662;DHT22;3367;48.714;8.994;2023-02-11T04:53:43;-2.50;1.00
6662;DHT22;3367;48.714;8.994;2023-02-11T04:56:11;-2.50;1.00
6662;DHT22;3367;48.714;8.994;2023-02-11T04:58:38;-2.40;1.00
6662;DHT22;3367;48.714;8.994;2023-02-11T05:01:05;-2.40;1.00
6662;DHT22;3367;48.714;8.994;2023-02-11T05:03:33;-2.30;1.00
6662;DHT22;3367;48.714;8.994;2023-02-11T05:05:59;-2.30;99.90
6662;DHT22;3367;48.714;8.994;2023-02-11T05:08:26;-2.20;99.90
6662;DHT22;3367;48.714;8.994;2023-02-11T05:10:53;-2.10;99.90
6662;DHT22;3367;48.714;8.994;2023-02-11T05:13:21;-2.10;99.90
6662;DHT22;3367;48.714;8.994;2023-02-11T05:15:48;-2.10;99.90
6662;DHT22;3367;48.714;8.994;2023-02-11T05:18:15;-2.00;99.90
6662;DHT22;3367;48.714;8.994;2023-02-11T05:20:42;-2.00;73.70
6662;DHT22;3367;48.714;8.994;2023-02-11T05:23:09;-2.00;55.10
6662;DHT22;3367;48.714;8.994;2023-02-11T05:25:36;-1.90;30.30
6662;DHT22;3367;48.714;8.994;2023-02-11T05:28:04;-1.90;1.00
6662;DHT22;3367;48.714;8.994;2023-02-11T05:30:32;-1.90;1.00
6662;DHT22;3367;48.714;8.994;2023-02-11T05:32:59;-1.90;1.00
6662;DHT22;3367;48.714;8.994;2023-02-11T05:35:25;-1.80;1.00
6662;DHT22;3367;48.714;8.994;2023-02-11T05:37:52;-1.80;1.00
6662;DHT22;3367;48.714;8.994;2023-02-11T05:40:19;-1.80;1.00
6662;DHT22;3367;48.714;8.994;2023-02-11T05:42:45;-1.70;1.00
6662;DHT22;3367;48.714;8.994;2023-02-11T05:45:12;-1.70;1.00
6662;DHT22;3367;48.714;8.994;2023-02-11T05:47:40;-1.70;1.00
6662;DHT22;3367;48.714;8.994;2023-02-11T05:50:07;-1.80;1.00
6662;DHT22;3367;48.714;8.994;2023-02-11T05:52:34;-1.80;1.00
6662;DHT22;3367;48.714;8.994;2023-02-11T05:55:00;-1.70;1.00
6662;DHT22;3367;48.714;8.994;2023-02-11T05:57:27;-1.70;1.00
6662;DHT22;3367;48.714;8.994;2023-02-11T05:59:54;-1.60;1.00
6662;DHT22;3367;48.714;8.994;2023-02-11T06:02:20;-1.50;1.00
6662;DHT22;3367;48.714;8.994;2023-02-11T06:04:48;-1.50;1.00
6662;DHT22;3367;48.714;8.994;2023-02-11T06:07:15;-1.40;1.00
6662;DHT22;3367;48.714;8.994;2023-02-11T06:09:44;-1.50;1.00
6662;DHT22;3367;48.714;8.994;2023-02-11T06:12:10;-1.40;1.00
6662;DHT22;3367;48.714;8.994;2023-02-11T06:14:37;-1.40;1.00
6662;DHT22;3367;48.714;8.994;2023-02-11T06:17:04;-1.40;1.00
6662;DHT22;3367;48.714;8.994;2023-02-11T06:19:30;-1.30;1.00
6662;DHT22;3367;48.714;8.994;2023-02-11T06:21:59;-1.30;1.00
6662;DHT22;3367;48.714;8.994;2023-02-11T06:24:25;-1.30;1.00
6662;DHT22;3367;48.714;8.994;2023-02-11T06:26:52;-1.30;1.00
6662;DHT22;3367;48.714;8.994;2023-02-11T06:29:19;-1.30;1.00
6662;DHT22;3367;48.714;8.994;2023-02-11T06:31:45;-1.30;1.00
6662;DHT22;3367;48.714;8.994;2023-02-11T06:34:12;-1.20;1.00
6662;DHT22;3367;48.714;8.994;2023-02-11T06:36:39;-1.20;1.00
6662;DHT22;3367;48.714;8.994;2023-02-11T06:39:09;-1.10;1.00
6662;DHT22;3367;48.714;8.994;2023-02-11T06:41:37;-1.10;1.00
6662;DHT22;3367;48.714;8.994;2023-02-11T06:44:04;-1.10;1.00
6662;DHT22;3367;48.714;8.994;2023-02-11T06:46:31;-1.10;1.00
6662;DHT22;3367;48.714;8.994;2023-02-11T06:48:58;-1.10;1.00
6662;DHT22;3367;48.714;8.994;2023-02-11T06:51:24;-1.00;1.00
6662;DHT22;3367;48.714;8.994;2023-02-11T06:53:51;-1.00;1.00
6662;DHT22;3367;48.714;8.994;2023-02-11T06:56:22;-0.90;1.00
6662;DHT22;3367;48.714;8.994;2023-02-11T06:58:51;-0.90;1.00
6662;DHT22;3367;48.714;8.994;2023-02-11T07:01:19;-0.80;1.00
6662;DHT22;3367;48.714;8.994;2023-02-11T07:03:45;-0.70;1.00
6662;DHT22;3367;48.714;8.994;2023-02-11T07:06:14;-0.70;1.00
6662;DHT22;3367;48.714;8.994;2023-02-11T07:08:42;-0.60;99.90
6662;DHT22;3367;48.714;8.994;2023-02-11T07:11:12;-0.60;99.90
6662;DHT22;3367;48.714;8.994;2023-02-11T07:13:40;-0.60;99.90
6662;DHT22;3367;48.714;8.994;2023-02-11T07:16:08;-0.50;99.90
6662;DHT22;3367;48.714;8.994;2023-02-11T07:18:35;-0.50;99.90
6662;DHT22;3367;48.714;8.994;2023-02-11T07:21:03;-0.50;99.90
6662;DHT22;3367;48.714;8.994;2023-02-11T07:23:31;-0.50;99.90
6662;DHT22;3367;48.714;8.994;2023-02-11T07:25:57;-0.50;99.90
6662;DHT22;3367;48.714;8.994;2023-02-11T07:28:27;-0.50;99.90
6662;DHT22;3367;48.714;8.994;2023-02-11T07:30:55;-0.40;99.90
6662;DHT22;3367;48.714;8.994;2023-02-11T07:33:22;-0.40;99.90
6662;DHT22;3367;48.714;8.994;2023-02-11T07:35:49;-0.30;99.90
6662;DHT22;3367;48.714;8.994;2023-02-11T07:38:15;-0.20;99.90
6662;DHT22;3367;48.714;8.994;2023-02-11T07:40:42;-0.20;99.90
6662;DHT22;3367;48.714;8.994;2023-02-11T07:43:09;-0.20;99.90
6662;DHT22;3367;48.714;8.994;2023-02-11T07:45:37;-0.10;99.90
6662;DHT22;3367;48.714;8.994;2023-02-11T07:48:05;-0.10;99.90
6662;DHT22;3367;48.714;8.994;2023-02-11T07:50:32;-0.10;99.90
6662;DHT22;3367;48.714;8.994;2023-02-11T07:52:59;0.00;99.90
6662;DHT22;3367;48.714;8.994;2023-02-11T07:55:25;0.10;99.90
6662;DHT22;3367;48.714;8.994;2023-02-11T07:57:52;0.20;99.90
6662;DHT22;3367;48.714;8.994;2023-02-11T08:00:19;0.30;99.90
6662;DHT22;3367;48.714;8.994;2023-02-11T08:02:46;0.40;99.90
6662;DHT22;3367;48.714;8.994;2023-02-11T08:05:14;0.40;79.70
6662;DHT22;3367;48.714;8.994;2023-02-11T08:07:41;0.50;8.50
6662;DHT22;3367;48.714;8.994;2023-02-11T08:10:08;0.50;9.40
6662;DHT22;3367;48.714;8.994;2023-02-11T08:12:34;0.60;1.00
6662;DHT22;3367;48.714;8.994;2023-02-11T08:15:01;0.60;21.90
6662;DHT22;3367;48.714;8.994;2023-02-11T08:17:28;0.70;1.00
6662;DHT22;3367;48.714;8.994;2023-02-11T08:19:54;0.90;1.00
6662;DHT22;3367;48.714;8.994;2023-02-11T08:22:22;1.00;1.00
6662;DHT22;3367;48.714;8.994;2023-02-11T08:24:49;1.10;1.00
6662;DHT22;3367;48.714;8.994;2023-02-11T08:27:16;1.10;1.00
6662;DHT22;3367;48.714;8.994;2023-02-11T08:29:42;1.30;1.00
6662;DHT22;3367;48.714;8.994;2023-02-11T08:32:09;1.30;1.00
6662;DHT22;3367;48.714;8.994;2023-02-11T08:34:36;1.30;1.00
6662;DHT22;3367;48.714;8.994;2023-02-11T08:37:02;1.40;1.00
6662;DHT22;3367;48.714;8.994;2023-02-11T08:39:30;1.50;1.00
6662;DHT22;3367;48.714;8.994;2023-02-11T08:41:57;1.60;1.00
6662;DHT22;3367;48.714;8.994;2023-02-11T08:44:24;1.70;1.00
6662;DHT22;3367;48.714;8.994;2023-02-11T08:46:51;1.70;1.00
6662;DHT22;3367;48.714;8.994;2023-02-11T08:49:19;1.80;1.00
6662;DHT22;3367;48.714;8.994;2023-02-11T08:51:46;1.70;1.00
6662;DHT22;3367;48.714;8.994;2023-02-11T08:54:14;1.70;1.00
6662;DHT22;3367;48.714;8.994;2023-02-11T08:56:42;1.70;1.00
6662;DHT22;3367;48.714;8.994;2023-02-11T08:59:12;1.70;1.00
6662;DHT22;3367;48.714;8.994;2023-02-11T09:01:39;1.70;1.00
6662;DHT22;3367;48.714;8.994;2023-02-11T09:04:05;1.70;1.00
6662;DHT22;3367;48.714;8.994;2023-02-11T09:06:32;1.80;1.00
6662;DHT22;3367;48.714;8.994;2023-02-11T09:08:59;1.80;1.00
6662;DHT22;3367;48.714;8.994;2023-02-11T09:11:27;1.90;1.00
6662;DHT22;3367;48.714;8.994;2023-02-11T09:13:56;2.10;1.00
6662;DHT22;3367;48.714;8.994;2023-02-11T09:16:25;2.20;1.00
6662;DHT22;3367;48.714;8.994;2023-02-11T09:18:52;2.40;1.00
6662;DHT22;3367;48.714;8.994;2023-02-11T09:21:19;2.50;1.00
6662;DHT22;3367;48.714;8.994;2023-02-11T09:23:46;2.60;1.00
6662;DHT22;3367;48.714;8.994;2023-02-11T09:26:15;2.80;1.00
6662;DHT22;3367;48.714;8.994;2023-02-11T09:28:42;2.90;1.00
6662;DHT22;3367;48.714;8.994;2023-02-11T09:31:11;3.00;99.90
6662;DHT22;3367;48.714;8.994;2023-02-11T09:33:40;3.00;99.90
6662;DHT22;3367;48.714;8.994;2023-02-11T09:36:13;3.20;99.90
6662;DHT22;3367;48.714;8.994;2023-02-11T09:38:40;3.20;99.90
6662;DHT22;3367;48.714;8.994;2023-02-11T09:41:22;3.40;99.90
6662;DHT22;3367;48.714;8.994;2023-02-11T09:43:53;3.50;99.90
6662;DHT22;3367;48.714;8.994;2023-02-11T09:46:23;3.70;99.90
6662;DHT22;3367;48.714;8.994;2023-02-11T09:48:52;3.80;99.90
6662;DHT22;3367;48.714;8.994;2023-02-11T09:51:28;3.90;99.90
6662;DHT22;3367;48.714;8.994;2023-02-11T09:54:02;4.10;15.50
6662;DHT22;3367;48.714;8.994;2023-02-11T09:56:31;4.20;4.10
6662;DHT22;3367;48.714;8.994;2023-02-11T09:58:58;4.30;1.00
6662;DHT22;3367;48.714;8.994;2023-02-11T10:01:32;4.40;1.00
6662;DHT22;3367;48.714;8.994;2023-02-11T10:04:06;4.40;1.00
6662;DHT22;3367;48.714;8.994;2023-02-11T10:06:41;4.40;1.00
6662;DHT22;3367;48.714;8.994;2023-02-11T10:09:25;4.60;1.00
6662;DHT22;3367;48.714;8.994;2023-02-11T10:12:02;4.50;1.00
6662;DHT22;3367;48.714;8.994;2023-02-11T10:14:47;4.50;1.00
6662;DHT22;3367;48.714;8.994;2023-02-11T10:17:24;4.60;1.00
6662;DHT22;3367;48.714;8.994;2023-02-11T10:20:05;4.70;1.00
6662;DHT22;3367;48.714;8.994;2023-02-11T10:22:36;4.90;1.00
6662;DHT22;3367;48.714;8.994;2023-02-11T10:25:16;5.00;1.00
6662;DHT22;3367;48.714;8.994;2023-02-11T10:27:43;5.10;1.00
6662;DHT22;3367;48.714;8.994;2023-02-11T10:30:21;5.20;1.00
6662;DHT22;3367;48.714;8.994;2023-02-11T10:32:52;5.30;1.00
6662;DHT22;3367;48.714;8.994;2023-02-11T10:35:22;5.40;1.00
6662;DHT22;3367;48.714;8.994;2023-02-11T10:37:51;5.40;1.00
6662;DHT22;3367;48.714;8.994;2023-02-11T10:40:22;5.40;1.00
6662;DHT22;3367;48.714;8.994;2023-02-11T10:42:51;5.40;1.00
6662;DHT22;3367;48.714;8.994;2023-02-11T10:45:23;5.40;1.00
6662;DHT22;3367;48.714;8.994;2023-02-11T10:47:52;5.40;1.00
6662;DHT22;3367;48.714;8.994;2023-02-11T10:50:22;5.40;1.00
6662;DHT22;3367;48.714;8.994;2023-02-11T10:52:50;5.40;1.00
6662;DHT22;3367;48.714;8.994;2023-02-11T10:55:18;5.20;1.00
6662;DHT22;3367;48.714;8.994;2023-02-11T10:57:52;5.30;1.00
6662;DHT22;3367;48.714;8.994;2023-02-11T11:00:28;5.40;1.00
6662;DHT22;3367;48.714;8.994;2023-02-11T11:02:59;5.60;1.00
6662;DHT22;3367;48.714;8.994;2023-02-11T11:05:30;5.80;1.00
6662;DHT22;3367;48.714;8.994;2023-02-11T11:07:59;5.90;1.00
6662;DHT22;3367;48.714;8.994;2023-02-11T11:10:29;5.90;1.00
6662;DHT22;3367;48.714;8.994;2023-02-11T11:12:57;6.00;1.00
6662;DHT22;3367;48.714;8.994;2023-02-11T11:15:25;6.00;1.00
6662;DHT22;3367;48.714;8.994;2023-02-11T11:18:11;6.10;1.00
6662;DHT22;3367;48.714;8.994;2023-02-11T11:20:43;6.20;1.00
6662;DHT22;3367;48.714;8.994;2023-02-11T11:23:20;6.20;1.00
6662;DHT22;3367;48.714;8.994;2023-02-11T11:26:00;6.30;1.00
6662;DHT22;3367;48.714;8.994;2023-02-11T11:28:31;6.40;1.00
6662;DHT22;3367;48.714;8.994;2023-02-11T11:31:01;6.40;1.00
6662;DHT22;3367;48.714;8.994;2023-02-11T11:33:33;6.50;1.00
6662;DHT22;3367;48.714;8.994;2023-02-11T11:36:04;6.50;1.00
6662;DHT22;3367;48.714;8.994;2023-02-11T11:38:34;6.60;1.00
6662;DHT22;3367;48.714;8.994;2023-02-11T11:41:20;6.70;1.00
6662;DHT22;3367;48.714;8.994;2023-02-11T11:44:03;6.80;1.00
6662;DHT22;3367;48.714;8.994;2023-02-11T11:46:32;6.80;1.00
6662;DHT22;3367;48.714;8.994;2023-02-11T11:49:13;6.80;1.00
6662;DHT22;3367;48.714;8.994;2023-02-11T11:51:48;6.80;1.00
6662;DHT22;3367;48.714;8.994;2023-02-11T11:54:17;6.80;1.00
6662;DHT22;3367;48.714;8.994;2023-02-11T11:56:50;6.80;1.00
6662;DHT22;3367;48.714;8.994;2023-02-11T11:59:18;7.00;1.00
6662;DHT22;3367;48.714;8.994;2023-02-11T12:02:02;7.20;1.00
6662;DHT22;3367;48.714;8.994;2023-02-11T12:04:51;7.30;1.00
6662;DHT22;3367;48.714;8.994;2023-02-11T12:07:30;7.50;1.00
6662;DHT22;3367;48.714;8.994;2023-02-11T12:13:10;7.50;1.00
6662;DHT22;3367;48.714;8.994;2023-02-11T12:15:44;7.50;1.00
6662;DHT22;3367;48.714;8.994;2023-02-11T12:18:24;7.60;1.00
6662;DHT22;3367;48.714;8.994;2023-02-11T12:23:55;8.00;1.00
6662;DHT22;3367;48.714;8.994;2023-02-11T12:26:27;8.10;1.00
6662;DHT22;3367;48.714;8.994;2023-02-11T12:29:04;8.10;1.00
6662;DHT22;3367;48.714;8.994;2023-02-11T12:31:46;8.20;1.00
6662;DHT22;3367;48.714;8.994;2023-02-11T12:34:32;8.20;1.00
6662;DHT22;3367;48.714;8.994;2023-02-11T12:37:13;8.10;1.00
6662;DHT22;3367;48.714;8.994;2023-02-11T12:39:49;8.00;1.00
6662;DHT22;3367;48.714;8.994;2023-02-11T12:42:32;8.00;1.00
6662;DHT22;3367;48.714;8.994;2023-02-11T12:45:27;8.10;1.00
6662;DHT22;3367;48.714;8.994;2023-02-11T12:48:10;8.10;1.00
6662;DHT22;3367;48.714;8.994;2023-02-11T12:50:44;8.30;1.00
6662;DHT22;3367;48.714;8.994;2023-02-11T12:53:29;8.50;1.00
6662;DHT22;3367;48.714;8.994;2023-02-11T12:56:02;8.70;1.00
6662;DHT22;3367;48.714;8.994;2023-02-11T12:58:32;8.70;1.00
6662;DHT22;3367;48.714;8.994;2023-02-11T13:01:04;8.80;1.00
6662;DHT22;3367;48.714;8.994;2023-02-11T13:03:36;8.70;1.00
6662;DHT22;3367;48.714;8.994;2023-02-11T13:06:07;8.70;1.00
6662;DHT22;3367;48.714;8.994;2023-02-11T13:08:37;8.70;1.00
6662;DHT22;3367;48.714;8.994;2023-02-11T13:11:08;8.60;1.00
6662;DHT22;3367;48.714;8.994;2023-02-11T13:13:46;8.60;1.00
6662;DHT22;3367;48.714;8.994;2023-02-11T13:16:19;8.70;1.00
6662;DHT22;3367;48.714;8.994;2023-02-11T13:18:56;8.70;1.00
6662;DHT22;3367;48.714;8.994;2023-02-11T13:21:32;8.60;1.00
6662;DHT22;3367;48.714;8.994;2023-02-11T13:24:13;8.60;1.00
6662;DHT22;3367;48.714;8.994;2023-02-11T13:26:46;8.50;1.00
6662;DHT22;3367;48.714;8.994;2023-02-11T13:29:22;8.50;1.00
6662;DHT22;3367;48.714;8.994;2023-02-11T13:31:53;8.50;1.00
6662;DHT22;3367;48.714;8.994;2023-02-11T13:34:23;8.50;1.00
6662;DHT22;3367;48.714;8.994;2023-02-11T13:36:54;8.50;1.00
6662;DHT22;3367;48.714;8.994;2023-02-11T13:39:22;8.60;1.00
6662;DHT22;3367;48.714;8.994;2023-02-11T13:41:49;8.50;1.00
6662;DHT22;3367;48.714;8.994;2023-02-11T13:44:24;8.60;1.00
6662;DHT22;3367;48.714;8.994;2023-02-11T13:46:55;8.60;1.00
6662;DHT22;3367;48.714;8.994;2023-02-11T13:49:25;8.60;1.00
6662;DHT22;3367;48.714;8.994;2023-02-11T13:51:54;8.50;1.00
6662;DHT22;3367;48.714;8.994;2023-02-11T13:54:31;8.30;1.00
6662;DHT22;3367;48.714;8.994;2023-02-11T13:57:34;8.10;1.00
6662;DHT22;3367;48.714;8.994;2023-02-11T14:03:23;8.10;1.00
6662;DHT22;3367;48.714;8.994;2023-02-11T14:06:17;8.10;1.00
6662;DHT22;3367;48.714;8.994;2023-02-11T14:11:51;8.10;1.00
6662;DHT22;3367;48.714;8.994;2023-02-11T14:14:22;8.00;1.00
6662;DHT22;3367;48.714;8.994;2023-02-11T14:17:16;8.10;1.00
6662;DHT22;3367;48.714;8.994;2023-02-11T14:19:44;8.10;1.00
6662;DHT22;3367;48.714;8.994;2023-02-11T14:22:13;8.10;1.00
6662;DHT22;3367;48.714;8.994;2023-02-11T14:24:50;8.20;1.00
6662;DHT22;3367;48.714;8.994;2023-02-11T14:27:27;8.10;1.00
6662;DHT22;3367;48.714;8.994;2023-02-11T14:32:53;8.10;1.00
6662;DHT22;3367;48.714;8.994;2023-02-11T14:35:28;8.10;1.00
6662;DHT22;3367;48.714;8.994;2023-02-11T14:38:03;8.00;1.00
6662;DHT22;3367;48.714;8.994;2023-02-11T14:40:37;8.00;1.00
6662;DHT22;3367;48.714;8.994;2023-02-11T14:43:11;8.00;1.00
6662;DHT22;3367;48.714;8.994;2023-02-11T14:45:41;7.90;1.00
6662;DHT22;3367;48.714;8.994;2023-02-11T14:48:14;7.90;1.00
6662;DHT22;3367;48.714;8.994;2023-02-11T14:50:45;7.90;1.00
6662;DHT22;3367;48.714;8.994;2023-02-11T14:53:14;7.90;1.00
6662;DHT22;3367;48.714;8.994;2023-02-11T14:55:44;7.80;1.00
6662;DHT22;3367;48.714;8.994;2023-02-11T14:58:15;7.80;1.00
6662;DHT22;3367;48.714;8.994;2023-02-11T15:00:52;7.90;1.00
6662;DHT22;3367;48.714;8.994;2023-02-11T15:03:28;8.10;1.00
6662;DHT22;3367;48.714;8.994;2023-02-11T15:05:56;8.40;1.00
6662;DHT22;3367;48.714;8.994;2023-02-11T15:08:24;8.40;1.00
6662;DHT22;3367;48.714;8.994;2023-02-11T15:10:52;8.10;1.00
6662;DHT22;3367;48.714;8.994;2023-02-11T15:13:23;7.90;1.00
6662;DHT22;3367;48.714;8.994;2023-02-11T15:15:54;7.80;1.00
6662;DHT22;3367;48.714;8.994;2023-02-11T15:18:34;7.60;1.00
6662;DHT22;3367;48.714;8.994;2023-02-11T15:21:03;7.60;1.00
6662;DHT22;3367;48.714;8.994;2023-02-11T15:23:30;7.50;1.00
6662;DHT22;3367;48.714;8.994;2023-02-11T15:25:57;7.50;1.00
6662;DHT22;3367;48.714;8.994;2023-02-11T15:28:32;7.50;1.00
6662;DHT22;3367;48.714;8.994;2023-02-11T15:31:01;7.50;1.00
6662;DHT22;3367;48.714;8.994;2023-02-11T15:33:28;7.50;1.00
6662;DHT22;3367;48.714;8.994;2023-02-11T15:35:57;7.40;1.00
6662;DHT22;3367;48.714;8.994;2023-02-11T15:38:24;7.40;1.00
6662;DHT22;3367;48.714;8.994;2023-02-11T15:40:53;7.30;1.00
6662;DHT22;3367;48.714;8.994;2023-02-11T15:43:19;7.30;1.00
6662;DHT22;3367;48.714;8.994;2023-02-11T15:45:57;7.20;1.00
6662;DHT22;3367;48.714;8.994;2023-02-11T15:48:31;7.10;1.00
6662;DHT22;3367;48.714;8.994;2023-02-11T15:51:02;7.00;1.00
6662;DHT22;3367;48.714;8.994;2023-02-11T15:53:33;6.90;1.00
6662;DHT22;3367;48.714;8.994;2023-02-11T15:56:03;6.80;1.00
6662;DHT22;3367;48.714;8.994;2023-02-11T15:58:35;6.70;1.00
6662;DHT22;3367;48.714;8.994;2023-02-11T16:01:05;6.60;1.00
6662;DHT22;3367;48.714;8.994;2023-02-11T16:03:32;6.50;1.00
6662;DHT22;3367;48.714;8.994;2023-02-11T16:06:17;6.50;1.00
6662;DHT22;3367;48.714;8.994;2023-02-11T16:08:56;6.30;1.00
6662;DHT22;3367;48.714;8.994;2023-02-11T16:11:25;6.30;1.00
6662;DHT22;3367;48.714;8.994;2023-02-11T16:13:53;6.10;1.00
6662;DHT22;3367;48.714;8.994;2023-02-11T16:16:23;6.10;1.00
6662;DHT22;3367;48.714;8.994;2023-02-11T16:18:52;6.00;1.00
6662;DHT22;3367;48.714;8.994;2023-02-11T16:21:23;6.00;1.00
6662;DHT22;3367;48.714;8.994;2023-02-11T16:23:55;5.90;1.00
6662;DHT22;3367;48.714;8.994;2023-02-11T16:26:26;5.70;1.00
6662;DHT22;3367;48.714;8.994;2023-02-11T16:29:02;5.70;1.00
6662;DHT22;3367;48.714;8.994;2023-02-11T16:31:36;5.60;1.00
6662;DHT22;3367;48.714;8.994;2023-02-11T16:34:10;5.60;37.30
6662;DHT22;3367;48.714;8.994;2023-02-11T16:36:39;5.60;58.40
6662;DHT22;3367;48.714;8.994;2023-02-11T16:39:06;5.60;76.40
6662;DHT22;3367;48.714;8.994;2023-02-11T16:41:33;5.70;86.30
6662;DHT22;3367;48.714;8.994;2023-02-11T16:43:59;5.70;93.60
6662;DHT22;3367;48.714;8.994;2023-02-11T16:46:26;5.70;95.10
6662;DHT22;3367;48.714;8.994;2023-02-11T16:48:55;5.60;97.70
6662;DHT22;3367;48.714;8.994;2023-02-11T16:51:23;5.60;99.90
6662;DHT22;3367;48.714;8.994;2023-02-11T16:53:49;5.60;99.90
6662;DHT22;3367;48.714;8.994;2023-02-11T16:56:17;5.70;99.90
6662;DHT22;3367;48.714;8.994;2023-02-11T16:58:44;5.60;99.90
6662;DHT22;3367;48.714;8.994;2023-02-11T17:01:11;5.60;99.90
6662;DHT22;3367;48.714;8.994;2023-02-11T17:03:39;5.60;99.90
6662;DHT22;3367;48.714;8.994;2023-02-11T17:06:09;5.60;99.90
6662;DHT22;3367;48.714;8.994;2023-02-11T17:08:36;5.50;99.90
6662;DHT22;3367;48.714;8.994;2023-02-11T17:11:04;5.50;99.90